createdAt,value
2019-04-26T00:00:20.091Z,0.00
2019-04-26T00:01:20.065Z,0.00
2019-04-26T00:02:20.040Z,0.00
2019-04-26T00:03:20.016Z,0.00
2019-04-26T00:04:19.991Z,0.00
2019-04-26T00:05:19.965Z,0.00
2019-04-26T00:06:21.504Z,0.00
2019-04-26T00:07:20.704Z,0.00
2019-04-26T00:08:19.892Z,0.00
2019-04-26T00:09:19.872Z,0.00
2019-04-26T00:10:19.845Z,0.00
2019-04-26T00:11:19.822Z,0.00
2019-04-26T00:12:19.794Z,0.00
2019-04-26T00:13:19.768Z,0.00
2019-04-26T00:14:19.743Z,0.00
2019-04-26T00:15:19.718Z,0.00
2019-04-26T00:16:19.695Z,0.00
2019-04-26T00:17:19.670Z,0.00
2019-04-26T00:18:19.647Z,0.00
2019-04-26T00:19:19.619Z,0.00
2019-04-26T00:20:19.595Z,0.00
2019-04-26T00:21:19.569Z,0.00
2019-04-26T00:22:19.546Z,0.00
2019-04-26T00:23:20.270Z,0.00
2019-04-26T00:24:19.495Z,0.00
2019-04-26T00:25:19.469Z,0.00
2019-04-26T00:26:19.697Z,0.00
2019-04-26T00:27:19.420Z,0.00
2019-04-26T00:28:19.394Z,0.00
2019-04-26T00:29:19.370Z,0.00
2019-04-26T00:30:19.345Z,0.00
2019-04-26T00:31:19.320Z,0.00
2019-04-26T00:32:19.295Z,0.00
2019-04-26T00:33:19.462Z,0.00
2019-04-26T00:34:19.618Z,0.00
2019-04-26T00:35:19.902Z,0.00
2019-04-26T00:36:19.195Z,0.00
2019-04-26T00:37:20.128Z,0.00
2019-04-26T00:38:20.288Z,0.00
2019-04-26T00:39:20.253Z,0.00
2019-04-26T00:40:20.254Z,0.00
2019-04-26T00:41:19.069Z,0.00
2019-04-26T00:42:19.044Z,0.00
2019-04-26T00:43:19.021Z,0.00
2019-04-26T00:44:18.994Z,0.00
2019-04-26T00:45:18.969Z,0.00
2019-04-26T00:46:18.945Z,0.00
2019-04-26T00:47:19.108Z,0.00
2019-04-26T00:48:19.031Z,0.00
2019-04-26T00:49:19.212Z,0.00
2019-04-26T00:50:19.125Z,0.00
2019-04-26T00:51:19.347Z,0.00
2019-04-26T00:52:19.481Z,0.00
2019-04-26T00:53:19.599Z,0.00
2019-04-26T00:54:18.747Z,0.00
2019-04-26T00:55:19.617Z,0.00
2019-04-26T00:56:18.697Z,0.00
2019-04-26T00:57:18.670Z,0.00
2019-04-26T00:58:18.788Z,0.00
2019-04-26T00:59:18.622Z,0.00
2019-04-26T01:00:19.525Z,0.00
2019-04-26T01:01:18.648Z,0.00
2019-04-26T01:02:18.663Z,0.00
2019-04-26T01:03:18.673Z,0.00
2019-04-26T01:04:18.837Z,0.00
2019-04-26T01:05:18.929Z,0.00
2019-04-26T01:06:18.845Z,0.00
2019-04-26T01:07:19.102Z,0.00
2019-04-26T01:08:19.219Z,0.00
2019-04-26T01:09:19.440Z,0.00
2019-04-26T01:10:19.560Z,0.00
2019-04-26T01:11:18.326Z,0.00
2019-04-26T01:12:18.302Z,0.00
2019-04-26T01:13:18.277Z,0.00
2019-04-26T01:14:18.252Z,0.00
2019-04-26T01:15:19.950Z,0.00
2019-04-26T01:16:18.388Z,0.00
2019-04-26T01:17:18.690Z,0.00
2019-04-26T01:18:18.249Z,0.00
2019-04-26T01:19:18.584Z,0.00
2019-04-26T01:20:18.881Z,0.00
2019-04-26T01:21:18.543Z,0.00
2019-04-26T01:22:19.285Z,0.00
2019-04-26T01:23:18.762Z,0.00
2019-04-26T01:24:19.320Z,0.00
2019-04-26T01:25:18.851Z,0.00
2019-04-26T01:26:19.136Z,0.00
2019-04-26T01:27:18.552Z,0.00
2019-04-26T01:28:18.510Z,0.00
2019-04-26T01:29:18.622Z,0.00
2019-04-26T01:30:18.352Z,0.00
2019-04-26T01:31:18.644Z,0.00
2019-04-26T01:32:19.213Z,0.00
2019-04-26T01:33:18.714Z,0.00
2019-04-26T01:34:18.973Z,0.00
2019-04-26T01:35:17.839Z,0.00
2019-04-26T01:36:18.084Z,0.00
2019-04-26T01:37:18.306Z,0.00
2019-04-26T01:38:17.654Z,0.00
2019-04-26T01:39:17.632Z,0.00
2019-04-26T01:40:17.604Z,0.00
2019-04-26T01:41:17.578Z,0.00
2019-04-26T01:42:17.553Z,0.00
2019-04-26T01:43:17.529Z,0.00
2019-04-26T01:44:17.504Z,0.00
2019-04-26T01:45:17.478Z,0.00
2019-04-26T01:46:17.457Z,0.00
2019-04-26T01:47:17.427Z,0.00
2019-04-26T01:48:17.403Z,0.00
2019-04-26T01:49:17.383Z,0.00
2019-04-26T01:50:17.352Z,0.00
2019-04-26T01:51:17.376Z,0.00
2019-04-26T01:52:17.302Z,0.00
2019-04-26T01:53:17.276Z,0.00
2019-04-26T01:54:17.252Z,0.00
2019-04-26T01:55:17.227Z,0.00
2019-04-26T01:56:17.202Z,0.00
2019-04-26T01:57:17.175Z,0.00
2019-04-26T01:58:17.151Z,0.00
2019-04-26T01:59:17.126Z,0.00
2019-04-26T02:00:17.103Z,0.00
2019-04-26T02:01:17.075Z,0.00
2019-04-26T02:02:17.050Z,0.00
2019-04-26T02:03:17.025Z,0.00
2019-04-26T02:04:16.999Z,0.00
2019-04-26T02:05:16.987Z,0.00
2019-04-26T02:06:25.262Z,0.00
2019-04-26T02:07:16.925Z,0.00
2019-04-26T02:08:16.903Z,0.00
2019-04-26T02:09:16.872Z,0.00
2019-04-26T02:10:16.847Z,0.00
2019-04-26T02:11:16.823Z,0.00
2019-04-26T02:12:16.797Z,0.00
2019-04-26T02:13:16.772Z,0.00
2019-04-26T02:14:16.747Z,0.00
2019-04-26T02:15:16.722Z,0.00
2019-04-26T02:16:16.698Z,0.00
2019-04-26T02:17:16.673Z,0.00
2019-04-26T02:18:16.651Z,0.00
2019-04-26T02:19:16.623Z,0.00
2019-04-26T02:20:16.598Z,0.00
2019-04-26T02:21:16.574Z,0.00
2019-04-26T02:22:16.546Z,0.00
2019-04-26T02:23:16.521Z,0.00
2019-04-26T02:24:16.499Z,0.00
2019-04-26T02:25:16.472Z,0.00
2019-04-26T02:26:16.447Z,0.00
2019-04-26T02:27:16.424Z,0.00
2019-04-26T02:28:16.399Z,0.00
2019-04-26T02:29:16.376Z,0.00
2019-04-26T02:30:16.349Z,0.00
2019-04-26T02:31:16.324Z,0.00
2019-04-26T02:32:16.301Z,0.00
2019-04-26T02:33:16.275Z,0.00
2019-04-26T02:34:16.255Z,0.00
2019-04-26T02:35:16.227Z,0.00
2019-04-26T02:36:16.202Z,0.00
2019-04-26T02:37:16.179Z,0.00
2019-04-26T02:38:16.154Z,0.00
2019-04-26T02:39:16.126Z,0.00
2019-04-26T02:40:16.101Z,0.00
2019-04-26T02:41:16.077Z,0.00
2019-04-26T02:42:16.052Z,0.00
2019-04-26T02:43:16.029Z,0.00
2019-04-26T02:44:16.008Z,0.00
2019-04-26T02:45:15.977Z,0.00
2019-04-26T02:46:15.953Z,0.00
2019-04-26T02:47:15.930Z,0.00
2019-04-26T02:48:15.904Z,0.00
2019-04-26T02:49:15.881Z,0.00
2019-04-26T02:50:15.858Z,0.00
2019-04-26T02:51:15.833Z,0.00
2019-04-26T02:52:15.807Z,0.00
2019-04-26T02:53:15.780Z,0.00
2019-04-26T02:54:15.758Z,0.00
2019-04-26T02:55:15.735Z,0.00
2019-04-26T02:56:15.710Z,0.00
2019-04-26T02:57:15.684Z,0.00
2019-04-26T02:58:15.662Z,0.00
2019-04-26T02:59:15.637Z,0.00
2019-04-26T03:00:15.617Z,0.00
2019-04-26T03:01:15.586Z,0.00
2019-04-26T03:02:15.567Z,0.00
2019-04-26T03:03:15.537Z,0.00
2019-04-26T03:04:15.514Z,0.00
2019-04-26T03:05:15.489Z,0.00
2019-04-26T03:06:15.463Z,0.00
2019-04-26T03:07:15.440Z,0.00
2019-04-26T03:08:15.415Z,0.00
2019-04-26T03:09:15.391Z,0.00
2019-04-26T03:10:15.368Z,0.00
2019-04-26T03:11:17.533Z,0.00
2019-04-26T03:12:15.331Z,0.00
2019-04-26T03:13:15.294Z,0.00
2019-04-26T03:14:15.269Z,0.00
2019-04-26T03:15:15.257Z,0.00
2019-04-26T03:16:15.228Z,0.00
2019-04-26T03:17:15.198Z,0.00
2019-04-26T03:18:15.185Z,0.00
2019-04-26T03:19:15.157Z,0.00
2019-04-26T03:20:15.124Z,0.00
2019-04-26T03:21:15.100Z,0.00
2019-04-26T03:22:15.076Z,0.00
2019-04-26T03:23:15.050Z,0.00
2019-04-26T03:24:15.030Z,0.00
2019-04-26T03:25:15.003Z,0.00
2019-04-26T03:26:14.979Z,0.00
2019-04-26T03:27:14.961Z,0.00
2019-04-26T03:28:14.998Z,0.00
2019-04-26T03:29:14.905Z,0.00
2019-04-26T03:30:21.529Z,0.00
2019-04-26T03:31:14.871Z,0.00
2019-04-26T03:32:16.728Z,0.00
2019-04-26T03:33:14.892Z,0.00
2019-04-26T03:34:14.955Z,0.00
2019-04-26T03:35:14.761Z,0.00
2019-04-26T03:36:14.735Z,0.00
2019-04-26T03:37:20.925Z,0.00
2019-04-26T03:38:14.686Z,0.00
2019-04-26T03:39:14.661Z,4.00
2019-04-26T03:40:14.636Z,4.00
2019-04-26T03:41:14.611Z,0.00
2019-04-26T03:42:14.590Z,0.00
2019-04-26T03:43:14.567Z,4.00
2019-04-26T03:44:14.539Z,0.00
2019-04-26T03:45:14.518Z,0.00
2019-04-26T03:46:14.493Z,4.00
2019-04-26T03:47:14.463Z,4.00
2019-04-26T03:48:14.439Z,4.00
2019-04-26T03:49:14.414Z,4.00
2019-04-26T03:50:14.393Z,4.00
2019-04-26T03:51:14.365Z,4.00
2019-04-26T03:52:14.362Z,4.00
2019-04-26T03:53:14.321Z,4.00
2019-04-26T03:54:14.291Z,4.00
2019-04-26T03:55:14.267Z,4.00
2019-04-26T03:56:14.238Z,4.00
2019-04-26T03:57:14.247Z,4.00
2019-04-26T03:58:14.188Z,4.00
2019-04-26T03:59:14.162Z,4.00
2019-04-26T04:00:14.157Z,4.00
2019-04-26T04:01:14.125Z,4.00
2019-04-26T04:02:14.086Z,4.00
2019-04-26T04:03:14.070Z,4.00
2019-04-26T04:04:14.036Z,8.00
2019-04-26T04:05:14.019Z,4.00
2019-04-26T04:06:13.989Z,8.00
2019-04-26T04:07:13.959Z,4.00
2019-04-26T04:08:13.936Z,8.00
2019-04-26T04:09:13.909Z,8.00
2019-04-26T04:10:13.884Z,8.00
2019-04-26T04:11:13.860Z,8.00
2019-04-26T04:12:13.918Z,8.00
2019-04-26T04:13:13.810Z,8.00
2019-04-26T04:14:13.947Z,12.00
2019-04-26T04:15:13.754Z,8.00
2019-04-26T04:16:13.733Z,12.00
2019-04-26T04:17:13.713Z,16.00
2019-04-26T04:18:13.680Z,20.00
2019-04-26T04:19:13.668Z,24.00
2019-04-26T04:20:13.628Z,28.00
2019-04-26T04:21:13.602Z,32.00
2019-04-26T04:22:13.578Z,36.00
2019-04-26T04:23:13.551Z,44.00
2019-04-26T04:24:13.527Z,48.00
2019-04-26T04:25:13.585Z,52.00
2019-04-26T04:26:13.582Z,60.00
2019-04-26T04:27:13.453Z,60.00
2019-04-26T04:28:13.424Z,56.00
2019-04-26T04:29:13.399Z,64.00
2019-04-26T04:30:13.376Z,68.00
2019-04-26T04:31:13.363Z,76.00
2019-04-26T04:32:13.323Z,76.00
2019-04-26T04:33:13.314Z,76.00
2019-04-26T04:34:13.274Z,72.00
2019-04-26T04:35:13.247Z,60.00
2019-04-26T04:36:13.221Z,56.00
2019-04-26T04:37:13.202Z,52.00
2019-04-26T04:38:13.186Z,52.00
2019-04-26T04:39:13.487Z,48.00
2019-04-26T04:40:13.121Z,52.00
2019-04-26T04:41:13.103Z,60.00
2019-04-26T04:42:13.066Z,60.00
2019-04-26T04:43:13.191Z,48.00
2019-04-26T04:44:13.018Z,44.00
2019-04-26T04:45:12.990Z,48.00
2019-04-26T04:46:13.085Z,52.00
2019-04-26T04:47:23.813Z,60.00
2019-04-26T04:48:12.914Z,72.00
2019-04-26T04:49:12.888Z,84.00
2019-04-26T04:50:12.862Z,100.00
2019-04-26T04:51:12.837Z,104.00
2019-04-26T04:52:12.811Z,108.00
2019-04-26T04:53:12.784Z,128.00
2019-04-26T04:54:12.772Z,152.00
2019-04-26T04:55:12.734Z,176.00
2019-04-26T04:56:12.709Z,184.00
2019-04-26T04:57:12.682Z,196.00
2019-04-26T04:58:12.657Z,200.00
2019-04-26T04:59:12.629Z,204.00
2019-04-26T05:00:12.606Z,216.00
2019-04-26T05:01:12.578Z,220.00
2019-04-26T05:02:12.553Z,224.00
2019-04-26T05:03:12.528Z,208.00
2019-04-26T05:04:12.502Z,220.00
2019-04-26T05:05:12.476Z,228.00
2019-04-26T05:06:12.450Z,236.00
2019-04-26T05:07:12.424Z,240.00
2019-04-26T05:08:12.400Z,224.00
2019-04-26T05:09:12.373Z,216.00
2019-04-26T05:10:12.347Z,224.00
2019-04-26T05:11:12.321Z,236.00
2019-04-26T05:12:12.295Z,252.00
2019-04-26T05:13:12.267Z,280.00
2019-04-26T05:14:12.242Z,304.00
2019-04-26T05:15:12.217Z,316.00
2019-04-26T05:16:12.192Z,324.00
2019-04-26T05:17:12.164Z,320.00
2019-04-26T05:18:12.139Z,320.00
2019-04-26T05:19:12.113Z,320.00
2019-04-26T05:20:12.838Z,324.00
2019-04-26T05:21:12.060Z,316.00
2019-04-26T05:22:12.035Z,308.00
2019-04-26T05:23:12.014Z,300.00
2019-04-26T05:24:11.984Z,300.00
2019-04-26T05:25:11.967Z,316.00
2019-04-26T05:26:11.930Z,340.00
2019-04-26T05:27:11.904Z,372.00
2019-04-26T05:28:11.879Z,408.00
2019-04-26T05:29:11.852Z,448.00
2019-04-26T05:30:11.828Z,484.00
2019-04-26T05:31:11.798Z,508.00
2019-04-26T05:32:11.774Z,504.00
2019-04-26T05:33:11.747Z,496.00
2019-04-26T05:34:11.722Z,492.00
2019-04-26T05:35:11.696Z,504.00
2019-04-26T05:36:11.670Z,528.00
2019-04-26T05:37:11.642Z,556.00
2019-04-26T05:38:18.316Z,576.00
2019-04-26T05:39:11.627Z,588.00
2019-04-26T05:40:11.564Z,604.00
2019-04-26T05:41:11.538Z,628.00
2019-04-26T05:42:11.512Z,664.00
2019-04-26T05:43:11.487Z,696.00
2019-04-26T05:44:11.463Z,724.00
2019-04-26T05:45:11.437Z,732.00
2019-04-26T05:46:11.407Z,720.00
2019-04-26T05:47:13.633Z,716.00
2019-04-26T05:48:12.038Z,704.00
2019-04-26T05:49:11.328Z,704.00
2019-04-26T05:50:11.303Z,708.00
2019-04-26T05:51:11.277Z,712.00
2019-04-26T05:52:13.619Z,728.00
2019-04-26T05:53:11.224Z,740.00
2019-04-26T05:54:11.198Z,740.00
2019-04-26T05:55:11.175Z,752.00
2019-04-26T05:56:11.149Z,760.00
2019-04-26T05:57:11.119Z,760.00
2019-04-26T05:58:11.094Z,764.00
2019-04-26T05:59:11.068Z,776.00
2019-04-26T06:00:11.049Z,792.00
2019-04-26T06:01:11.016Z,816.00
2019-04-26T06:02:10.994Z,852.00
2019-04-26T06:03:10.964Z,904.00
2019-04-26T06:04:13.190Z,972.00
2019-04-26T06:05:10.911Z,1064.00
2019-04-26T06:06:10.885Z,1156.00
2019-04-26T06:07:10.860Z,1240.00
2019-04-26T06:08:10.834Z,1296.00
2019-04-26T06:09:10.807Z,1396.00
2019-04-26T06:10:10.781Z,1416.00
2019-04-26T06:11:10.755Z,1500.00
2019-04-26T06:12:12.430Z,1536.00
2019-04-26T06:13:10.715Z,1560.00
2019-04-26T06:14:10.681Z,1560.00
2019-04-26T06:15:10.652Z,1608.00
2019-04-26T06:16:10.626Z,1628.00
2019-04-26T06:17:10.600Z,1600.00
2019-04-26T06:18:10.574Z,1580.00
2019-04-26T06:19:10.550Z,1580.00
2019-04-26T06:20:22.275Z,1544.00
2019-04-26T06:21:12.749Z,1532.00
2019-04-26T06:22:10.471Z,1568.00
2019-04-26T06:23:10.446Z,1572.00
2019-04-26T06:24:10.421Z,1556.00
2019-04-26T06:25:10.395Z,1532.00
2019-04-26T06:26:10.373Z,1480.00
2019-04-26T06:27:14.084Z,1396.00
2019-04-26T06:28:10.318Z,1292.00
2019-04-26T06:29:10.291Z,1180.00
2019-04-26T06:30:10.266Z,1120.00
2019-04-26T06:31:10.241Z,1108.00
2019-04-26T06:32:10.215Z,1124.00
2019-04-26T06:33:10.421Z,1176.00
2019-04-26T06:34:10.164Z,1244.00
2019-04-26T06:35:10.137Z,1316.00
2019-04-26T06:36:10.144Z,1392.00
2019-04-26T06:37:10.086Z,1468.00
2019-04-26T06:38:10.061Z,1536.00
2019-04-26T06:39:10.036Z,1624.00
2019-04-26T06:40:10.009Z,1736.00
2019-04-26T06:41:09.984Z,1904.00
2019-04-26T06:42:09.958Z,2132.00
2019-04-26T06:43:09.933Z,2412.00
2019-04-26T06:44:09.907Z,2760.00
2019-04-26T06:45:09.881Z,3216.00
2019-04-26T06:46:09.856Z,3736.00
2019-04-26T06:47:09.831Z,4056.00
2019-04-26T06:48:09.805Z,4076.00
2019-04-26T06:49:11.280Z,3956.00
2019-04-26T06:50:10.092Z,3764.00
2019-04-26T06:51:23.277Z,3532.00
2019-04-26T06:52:09.709Z,3312.00
2019-04-26T06:53:09.677Z,3116.00
2019-04-26T06:54:09.650Z,2900.00
2019-04-26T06:55:09.625Z,2704.00
2019-04-26T06:56:09.599Z,2544.00
2019-04-26T06:57:14.153Z,2436.00
2019-04-26T06:58:09.546Z,2388.00
2019-04-26T06:59:09.522Z,2352.00
2019-04-26T07:00:09.499Z,2340.00
2019-04-26T07:01:09.471Z,2364.00
2019-04-26T07:02:09.445Z,2444.00
2019-04-26T07:03:09.419Z,2560.00
2019-04-26T07:04:09.989Z,2648.00
2019-04-26T07:05:09.370Z,2688.00
2019-04-26T07:06:09.343Z,2680.00
2019-04-26T07:07:09.317Z,2672.00
2019-04-26T07:08:09.389Z,2656.00
2019-04-26T07:09:09.268Z,2588.00
2019-04-26T07:10:09.240Z,2452.00
2019-04-26T07:11:09.624Z,2280.00
2019-04-26T07:12:09.188Z,2104.00
2019-04-26T07:13:09.752Z,1972.00
2019-04-26T07:14:09.136Z,1900.00
2019-04-26T07:15:09.110Z,1872.00
2019-04-26T07:16:19.677Z,1832.00
2019-04-26T07:17:09.058Z,1768.00
2019-04-26T07:18:09.033Z,1688.00
2019-04-26T07:19:09.010Z,1624.00
2019-04-26T07:20:08.982Z,1560.00
2019-04-26T07:21:09.706Z,1508.00
2019-04-26T07:22:08.930Z,1456.00
2019-04-26T07:23:08.906Z,1404.00
2019-04-26T07:24:08.880Z,1368.00
2019-04-26T07:25:09.005Z,1328.00
2019-04-26T07:26:08.827Z,1268.00
2019-04-26T07:27:08.992Z,1180.00
2019-04-26T07:28:11.851Z,1076.00
2019-04-26T07:29:09.258Z,1036.00
2019-04-26T07:30:09.768Z,1036.00
2019-04-26T07:31:08.699Z,1060.00
2019-04-26T07:32:09.521Z,1048.00
2019-04-26T07:33:08.649Z,1108.00
2019-04-26T07:34:09.487Z,1200.00
2019-04-26T07:35:08.752Z,1276.00
2019-04-26T07:36:09.729Z,1348.00
2019-04-26T07:37:08.896Z,1404.00
2019-04-26T07:38:09.015Z,1464.00
2019-04-26T07:39:16.157Z,1516.00
2019-04-26T07:40:09.205Z,1600.00
2019-04-26T07:41:09.300Z,1708.00
2019-04-26T07:42:09.447Z,1816.00
2019-04-26T07:43:08.391Z,1932.00
2019-04-26T07:44:08.367Z,2004.00
2019-04-26T07:45:08.338Z,2028.00
2019-04-26T07:46:08.320Z,2024.00
2019-04-26T07:47:08.568Z,2024.00
2019-04-26T07:48:08.265Z,2028.00
2019-04-26T07:49:08.237Z,2060.00
2019-04-26T07:50:09.389Z,2088.00
2019-04-26T07:51:09.234Z,2132.00
2019-04-26T07:52:08.533Z,2172.00
2019-04-26T07:53:09.248Z,2204.00
2019-04-26T07:54:08.954Z,2272.00
2019-04-26T07:55:08.680Z,2384.00
2019-04-26T07:56:09.246Z,2488.00
2019-04-26T07:57:08.695Z,2560.00
2019-04-26T07:58:08.993Z,2612.00
2019-04-26T07:59:08.785Z,2736.00
2019-04-26T08:00:08.728Z,2844.00
2019-04-26T08:01:07.935Z,2968.00
2019-04-26T08:02:09.009Z,3084.00
2019-04-26T08:03:08.741Z,3164.00
2019-04-26T08:04:07.861Z,3212.00
2019-04-26T08:05:07.841Z,3248.00
2019-04-26T08:06:07.806Z,3272.00
2019-04-26T08:07:08.221Z,3344.00
2019-04-26T08:08:08.626Z,3504.00
2019-04-26T08:09:07.730Z,3748.00
2019-04-26T08:10:07.901Z,4020.00
2019-04-26T08:11:08.647Z,4280.00
2019-04-26T08:12:08.005Z,4488.00
2019-04-26T08:13:08.023Z,4624.00
2019-04-26T08:14:08.517Z,4720.00
2019-04-26T08:15:07.580Z,4732.00
2019-04-26T08:16:08.650Z,4800.00
2019-04-26T08:17:08.195Z,4976.00
2019-04-26T08:18:08.620Z,5108.00
2019-04-26T08:19:08.447Z,5072.00
2019-04-26T08:20:09.665Z,4932.00
2019-04-26T08:21:13.844Z,4876.00
2019-04-26T08:22:18.019Z,4920.00
2019-04-26T08:23:13.108Z,5128.00
2019-04-26T08:24:07.925Z,5284.00
2019-04-26T08:25:08.246Z,5452.00
2019-04-26T08:26:07.693Z,5740.00
2019-04-26T08:27:13.767Z,5904.00
2019-04-26T08:28:08.327Z,6048.00
2019-04-26T08:29:08.418Z,6236.00
2019-04-26T08:30:10.492Z,6260.00
2019-04-26T08:31:08.952Z,6256.00
2019-04-26T08:32:08.552Z,6132.00
2019-04-26T08:33:10.536Z,6012.00
2019-04-26T08:34:07.525Z,6240.00
2019-04-26T08:35:15.106Z,6764.00
2019-04-26T08:36:07.721Z,7000.00
2019-04-26T08:37:08.178Z,7052.00
2019-04-26T08:38:14.997Z,6892.00
2019-04-26T08:39:07.049Z,6740.00
2019-04-26T08:40:06.951Z,6976.00
2019-04-26T08:41:08.139Z,7184.00
2019-04-26T08:42:11.889Z,7460.00
2019-04-26T08:43:06.874Z,7556.00
2019-04-26T08:44:07.214Z,7380.00
2019-04-26T08:45:10.096Z,7044.00
2019-04-26T08:46:10.066Z,6532.00
2019-04-26T08:47:14.068Z,6040.00
2019-04-26T08:48:06.749Z,5604.00
2019-04-26T08:49:06.754Z,5336.00
2019-04-26T08:50:09.656Z,5000.00
2019-04-26T08:51:06.673Z,4780.00
2019-04-26T08:52:14.237Z,4752.00
2019-04-26T08:53:07.373Z,4680.00
2019-04-26T08:54:06.599Z,4676.00
2019-04-26T08:55:06.573Z,4588.00
2019-04-26T08:56:06.548Z,4528.00
2019-04-26T08:57:06.524Z,4292.00
2019-04-26T08:58:06.496Z,4148.00
2019-04-26T08:59:06.472Z,3856.00
2019-04-26T09:00:06.447Z,3816.00
2019-04-26T09:01:06.422Z,4284.00
2019-04-26T09:02:06.396Z,4376.00
2019-04-26T09:03:11.608Z,4304.00
2019-04-26T09:04:08.599Z,4208.00
2019-04-26T09:05:06.321Z,3932.00
2019-04-26T09:06:06.296Z,3936.00
2019-04-26T09:07:06.271Z,4440.00
2019-04-26T09:08:06.246Z,4820.00
2019-04-26T09:09:06.220Z,5072.00
2019-04-26T09:10:11.137Z,5120.00
2019-04-26T09:11:06.172Z,5036.00
2019-04-26T09:12:08.302Z,5164.00
2019-04-26T09:13:06.120Z,5132.00
2019-04-26T09:14:06.095Z,5064.00
2019-04-26T09:15:06.072Z,5224.00
2019-04-26T09:16:06.185Z,5084.00
2019-04-26T09:17:06.021Z,4744.00
2019-04-26T09:18:06.251Z,4700.00
2019-04-26T09:19:05.970Z,4388.00
2019-04-26T09:20:07.840Z,4264.00
2019-04-26T09:21:05.921Z,4292.00
2019-04-26T09:22:12.902Z,4036.00
2019-04-26T09:23:05.870Z,4060.00
2019-04-26T09:24:08.150Z,4096.00
2019-04-26T09:25:05.823Z,4016.00
2019-04-26T09:26:08.566Z,4104.00
2019-04-26T09:27:05.780Z,4272.00
2019-04-26T09:28:05.747Z,4072.00
2019-04-26T09:29:05.720Z,3624.00
2019-04-26T09:30:06.355Z,3140.00
2019-04-26T09:31:05.672Z,3280.00
2019-04-26T09:32:05.646Z,3612.00
2019-04-26T09:33:05.634Z,3556.00
2019-04-26T09:34:06.292Z,3312.00
2019-04-26T09:35:05.573Z,3196.00
2019-04-26T09:36:05.576Z,3028.00
2019-04-26T09:37:05.523Z,3056.00
2019-04-26T09:38:05.499Z,3048.00
2019-04-26T09:39:08.302Z,2780.00
2019-04-26T09:40:10.432Z,2640.00
2019-04-26T09:41:05.424Z,2612.00
2019-04-26T09:42:09.591Z,2644.00
2019-04-26T09:43:05.376Z,2600.00
2019-04-26T09:44:05.351Z,2588.00
2019-04-26T09:45:05.326Z,2596.00
2019-04-26T09:46:05.308Z,2704.00
2019-04-26T09:47:05.279Z,3040.00
2019-04-26T09:48:05.255Z,3020.00
2019-04-26T09:49:07.081Z,2976.00
2019-04-26T09:50:05.203Z,2888.00
2019-04-26T09:51:05.178Z,2940.00
2019-04-26T09:52:05.153Z,3000.00
2019-04-26T09:53:05.879Z,3100.00
2019-04-26T09:54:05.103Z,3104.00
2019-04-26T09:55:05.079Z,3056.00
2019-04-26T09:56:05.055Z,3148.00
2019-04-26T09:57:05.031Z,3248.00
2019-04-26T09:58:05.005Z,3412.00
2019-04-26T09:59:05.647Z,3464.00
2019-04-26T10:00:04.959Z,3492.00
2019-04-26T10:01:06.314Z,3532.00
2019-04-26T10:02:04.907Z,3600.00
2019-04-26T10:03:05.434Z,3568.00
2019-04-26T10:04:04.859Z,3480.00
2019-04-26T10:05:07.970Z,3388.00
2019-04-26T10:06:04.806Z,3296.00
2019-04-26T10:07:04.783Z,3372.00
2019-04-26T10:08:08.239Z,3448.00
2019-04-26T10:09:04.732Z,3608.00
2019-04-26T10:10:04.707Z,3736.00
2019-04-26T10:11:05.711Z,3836.00
2019-04-26T10:12:04.659Z,3928.00
2019-04-26T10:13:04.634Z,4012.00
2019-04-26T10:14:04.618Z,4140.00
2019-04-26T10:15:04.585Z,4240.00
2019-04-26T10:16:04.564Z,4324.00
2019-04-26T10:17:04.535Z,4352.00
2019-04-26T10:18:04.510Z,4428.00
2019-04-26T10:19:04.488Z,4492.00
2019-04-26T10:20:04.461Z,4528.00
2019-04-26T10:21:04.435Z,4504.00
2019-04-26T10:22:04.412Z,4440.00
2019-04-26T10:23:04.388Z,4436.00
2019-04-26T10:24:08.162Z,4464.00
2019-04-26T10:25:07.285Z,4440.00
2019-04-26T10:26:04.316Z,4504.00
2019-04-26T10:27:04.970Z,4548.00
2019-04-26T10:28:04.267Z,4560.00
2019-04-26T10:29:04.249Z,4644.00
2019-04-26T10:30:08.849Z,4784.00
2019-04-26T10:31:04.192Z,4836.00
2019-04-26T10:32:04.169Z,4772.00
2019-04-26T10:33:04.142Z,4580.00
2019-04-26T10:34:07.761Z,4396.00
2019-04-26T10:35:04.094Z,4536.00
2019-04-26T10:36:04.069Z,4564.00
2019-04-26T10:37:06.002Z,4536.00
2019-04-26T10:38:04.076Z,4560.00
2019-04-26T10:39:03.997Z,4440.00
2019-04-26T10:40:03.972Z,4576.00
2019-04-26T10:41:04.698Z,4608.00
2019-04-26T10:42:03.922Z,4604.00
2019-04-26T10:43:03.898Z,4736.00
2019-04-26T10:44:03.879Z,5120.00
2019-04-26T10:45:03.849Z,5208.00
2019-04-26T10:46:03.827Z,5404.00
2019-04-26T10:47:04.396Z,5740.00
2019-04-26T10:48:03.776Z,5732.00
2019-04-26T10:49:09.143Z,5896.00
2019-04-26T10:50:03.726Z,5944.00
2019-04-26T10:51:07.451Z,6188.00
2019-04-26T10:52:03.678Z,6632.00
2019-04-26T10:53:03.653Z,6824.00
2019-04-26T10:54:05.888Z,7148.00
2019-04-26T10:55:03.605Z,7164.00
2019-04-26T10:56:03.581Z,6704.00
2019-04-26T10:57:03.556Z,6364.00
2019-04-26T10:58:03.531Z,6432.00
2019-04-26T10:59:06.070Z,6304.00
2019-04-26T11:00:03.483Z,6032.00
2019-04-26T11:01:03.460Z,6012.00
2019-04-26T11:02:03.434Z,5804.00
2019-04-26T11:03:04.616Z,5436.00
2019-04-26T11:04:03.386Z,5336.00
2019-04-26T11:05:03.365Z,5440.00
2019-04-26T11:06:03.340Z,5748.00
2019-04-26T11:07:03.500Z,6136.00
2019-04-26T11:08:03.289Z,6620.00
2019-04-26T11:09:03.266Z,6832.00
2019-04-26T11:10:03.244Z,6760.00
2019-04-26T11:11:03.226Z,6624.00
2019-04-26T11:12:03.193Z,6444.00
2019-04-26T11:13:03.170Z,5916.00
2019-04-26T11:14:03.144Z,5916.00
2019-04-26T11:15:06.030Z,6068.00
2019-04-26T11:16:06.985Z,6484.00
2019-04-26T11:17:03.074Z,6476.00
2019-04-26T11:18:03.049Z,6140.00
2019-04-26T11:19:03.024Z,6532.00
2019-04-26T11:20:06.269Z,6084.00
2019-04-26T11:21:02.974Z,5464.00
2019-04-26T11:22:02.950Z,4860.00
2019-04-26T11:23:02.927Z,4652.00
2019-04-26T11:24:05.158Z,4560.00
2019-04-26T11:25:02.879Z,4408.00
2019-04-26T11:26:02.979Z,4280.00
2019-04-26T11:27:05.299Z,4364.00
2019-04-26T11:28:02.807Z,4616.00
2019-04-26T11:29:02.816Z,4820.00
2019-04-26T11:30:11.494Z,4448.00
2019-04-26T11:31:02.734Z,4352.00
2019-04-26T11:32:04.237Z,4228.00
2019-04-26T11:33:02.685Z,4076.00
2019-04-26T11:34:05.530Z,4112.00
2019-04-26T11:35:02.757Z,3924.00
2019-04-26T11:36:07.098Z,3792.00
2019-04-26T11:37:02.592Z,3472.00
2019-04-26T11:38:02.564Z,3420.00
2019-04-26T11:39:05.599Z,3404.00
2019-04-26T11:40:02.517Z,3652.00
2019-04-26T11:41:06.459Z,3808.00
2019-04-26T11:42:02.466Z,3800.00
2019-04-26T11:43:02.442Z,3760.00
2019-04-26T11:44:02.451Z,3828.00
2019-04-26T11:45:06.418Z,3796.00
2019-04-26T11:46:04.529Z,3716.00
2019-04-26T11:47:03.299Z,3716.00
2019-04-26T11:48:03.337Z,3760.00
2019-04-26T11:49:03.236Z,4168.00
2019-04-26T11:50:02.447Z,4756.00
2019-04-26T11:51:02.246Z,4968.00
2019-04-26T11:52:02.830Z,4600.00
2019-04-26T11:53:02.204Z,3984.00
2019-04-26T11:54:02.173Z,3496.00
2019-04-26T11:55:02.148Z,3340.00
2019-04-26T11:56:04.488Z,3264.00
2019-04-26T11:57:02.100Z,3172.00
2019-04-26T11:58:02.077Z,3156.00
2019-04-26T11:59:02.050Z,3224.00
2019-04-26T12:00:05.619Z,3372.00
2019-04-26T12:01:02.002Z,3704.00
2019-04-26T12:02:01.983Z,4016.00
2019-04-26T12:03:01.953Z,4108.00
2019-04-26T12:04:01.928Z,4004.00
2019-04-26T12:05:01.904Z,4056.00
2019-04-26T12:06:01.880Z,4384.00
2019-04-26T12:07:01.855Z,4532.00
2019-04-26T12:08:01.831Z,4556.00
2019-04-26T12:09:01.808Z,4464.00
2019-04-26T12:10:01.795Z,4192.00
2019-04-26T12:11:01.759Z,3992.00
2019-04-26T12:12:04.934Z,3928.00
2019-04-26T12:13:05.801Z,4068.00
2019-04-26T12:14:04.060Z,4200.00
2019-04-26T12:15:03.888Z,4372.00
2019-04-26T12:16:01.638Z,4548.00
2019-04-26T12:17:01.613Z,4676.00
2019-04-26T12:18:01.649Z,4632.00
2019-04-26T12:19:01.564Z,4596.00
2019-04-26T12:20:02.292Z,4612.00
2019-04-26T12:21:02.180Z,4588.00
2019-04-26T12:22:04.381Z,4604.00
2019-04-26T12:23:01.468Z,4776.00
2019-04-26T12:24:01.448Z,5008.00
2019-04-26T12:25:03.389Z,5340.00
2019-04-26T12:26:01.396Z,5488.00
2019-04-26T12:27:01.390Z,5416.00
2019-04-26T12:28:02.024Z,5352.00
2019-04-26T12:29:01.322Z,5308.00
2019-04-26T12:30:01.298Z,5284.00
2019-04-26T12:31:01.274Z,5288.00
2019-04-26T12:32:01.250Z,5396.00
2019-04-26T12:33:01.225Z,5712.00